Time;durP1;ratioP1;P1;durP2;ratioP2;P2;SDS_P1;SDS_P2;PMS_P1;PMS_P2;Temp;Humidity;BMP_temperature;BMP_pressure;BME280_temperature;BME280_humidity;BME280_pressure;Samples;Min_cycle;Max_cycle;Signal;HPM_P1;HPM_P2
2023/05/21 00:00:11;;;;;;;10.55;7.47;;;17.70;71.50;;;;;;5056079;28;20029;-74
2023/05/21 00:02:38;;;;;;;10.00;7.13;;;17.60;71.40;;;;;;5056239;28;20025;-74
2023/05/21 00:05:04;;;;;;;11.45;7.65;;;17.70;71.40;;;;;;5056062;28;20095;-74
2023/05/21 00:07:33;;;;;;;10.63;7.72;;;17.70;71.40;;;;;;5056156;28;20092;-74
2023/05/21 00:09:59;;;;;;;10.95;7.97;;;17.70;71.30;;;;;;5056333;28;20029;-74
2023/05/21 00:12:25;;;;;;;13.38;7.90;;;17.70;71.30;;;;;;5056386;28;20039;-74
2023/05/21 00:14:51;;;;;;;12.13;8.40;;;17.70;71.30;;;;;;5055716;28;20029;-66
2023/05/21 00:17:17;;;;;;;11.95;8.05;;;17.70;71.30;;;;;;5056056;28;20509;-66
2023/05/21 00:19:43;;;;;;;11.70;8.35;;;17.70;71.10;;;;;;5056194;28;20025;-66
2023/05/21 00:22:09;;;;;;;11.93;8.52;;;17.70;71.00;;;;;;5055484;28;20112;-65
2023/05/21 00:24:35;;;;;;;12.07;8.13;;;17.70;70.80;;;;;;5055202;28;20068;-65
2023/05/21 00:27:01;;;;;;;10.95;8.10;;;17.70;70.90;;;;;;5055523;28;20044;-65
2023/05/21 00:29:28;;;;;;;12.07;8.02;;;17.70;70.90;;;;;;5055521;28;20036;-65
2023/05/21 00:31:55;;;;;;;12.63;8.07;;;17.70;70.90;;;;;;5055417;28;20029;-65
2023/05/21 00:34:21;;;;;;;13.43;8.30;;;17.70;70.90;;;;;;5055332;28;20075;-65
2023/05/21 00:36:47;;;;;;;10.98;7.60;;;17.70;70.80;;;;;;5055422;28;20029;-65
2023/05/21 00:39:13;;;;;;;13.20;8.68;;;17.70;70.90;;;;;;5055596;28;20044;-66
2023/05/21 00:41:41;;;;;;;13.15;8.98;;;17.60;70.80;;;;;;5055245;28;20354;-66
2023/05/21 00:44:08;;;;;;;11.55;8.43;;;17.70;70.80;;;;;;5055455;28;20025;-65
2023/05/21 00:46:35;;;;;;;11.23;7.95;;;17.70;70.70;;;;;;5055244;28;20366;-66
2023/05/21 00:49:01;;;;;;;12.05;8.13;;;17.70;70.70;;;;;;5055492;28;20016;-66
2023/05/21 00:51:29;;;;;;;13.60;9.38;;;17.60;70.80;;;;;;5055205;28;20025;-66
2023/05/21 00:53:55;;;;;;;12.70;8.65;;;17.60;70.90;;;;;;5055369;28;20126;-65
2023/05/21 00:56:23;;;;;;;11.65;8.07;;;17.60;70.80;;;;;;5055429;28;20021;-65
2023/05/21 00:58:52;;;;;;;14.07;8.80;;;17.60;70.70;;;;;;5055370;28;20039;-65
2023/05/21 01:01:18;;;;;;;11.90;8.35;;;17.60;70.60;;;;;;5054654;28;20349;-66
2023/05/21 01:03:44;;;;;;;11.57;8.68;;;17.60;70.50;;;;;;5055277;28;20108;-66
2023/05/21 01:06:12;;;;;;;12.60;7.82;;;17.60;70.50;;;;;;5055593;28;20366;-73
2023/05/21 01:08:40;;;;;;;10.98;7.68;;;17.60;70.50;;;;;;5054953;28;20039;-74
2023/05/21 01:11:08;;;;;;;12.10;8.40;;;17.60;70.30;;;;;;5054990;28;20029;-73
2023/05/21 01:13:38;;;;;;;11.75;8.00;;;17.60;70.20;;;;;;5055399;28;20111;-73
2023/05/21 01:16:05;;;;;;;11.52;8.10;;;17.70;69.90;;;;;;5054949;28;20025;-73
2023/05/21 01:18:33;;;;;;;13.85;8.85;;;17.70;69.80;;;;;;5055457;28;20041;-74
2023/05/21 01:21:01;;;;;;;12.48;8.80;;;17.70;69.60;;;;;;5055290;28;20128;-74
2023/05/21 01:23:27;;;;;;;12.20;8.23;;;17.80;69.40;;;;;;5055075;28;20032;-73
2023/05/21 01:25:54;;;;;;;11.80;7.38;;;17.80;69.30;;;;;;5054687;28;20041;-74
2023/05/21 01:28:19;;;;;;;12.75;8.02;;;17.80;69.30;;;;;;5054898;28;20071;-76
2023/05/21 01:30:46;;;;;;;11.32;8.52;;;17.80;69.20;;;;;;5055070;28;20017;-74
2023/05/21 01:33:20;;;;;;;11.45;7.90;;;17.90;69.00;;;;;;5054800;28;20358;-74
2023/05/21 01:35:58;;;;;;;12.68;8.40;;;17.90;69.00;;;;;;5054759;28;20025;-73
2023/05/21 01:38:42;;;;;;;12.57;8.52;;;17.90;68.70;;;;;;5055038;28;20033;-73
2023/05/21 01:41:13;;;;;;;11.98;8.38;;;17.90;68.60;;;;;;5055206;28;20066;-73
2023/05/21 01:43:41;;;;;;;11.70;8.00;;;17.90;68.50;;;;;;5055192;28;20033;-65
2023/05/21 01:46:09;;;;;;;12.07;7.80;;;17.90;68.50;;;;;;5054980;28;20036;-64
2023/05/21 01:48:37;;;;;;;11.50;8.13;;;17.90;68.50;;;;;;5054899;28;20021;-65
2023/05/21 01:51:05;;;;;;;12.13;8.00;;;18.00;68.40;;;;;;5054648;28;20110;-65
2023/05/21 01:53:32;;;;;;;11.45;7.93;;;17.90;68.40;;;;;;5054817;28;20488;-65
2023/05/21 01:55:58;;;;;;;12.45;7.88;;;17.90;68.50;;;;;;5054573;28;20079;-65
2023/05/21 01:58:24;;;;;;;12.63;9.00;;;17.90;68.60;;;;;;5055321;28;20342;-66
2023/05/21 02:00:50;;;;;;;13.63;9.32;;;17.90;68.60;;;;;;5054436;28;20033;-66
2023/05/21 02:03:18;;;;;;;12.82;9.27;;;17.90;68.60;;;;;;5054814;28;20029;-65
2023/05/21 02:05:44;;;;;;;14.55;8.70;;;17.90;68.60;;;;;;5054668;28;20029;-65
2023/05/21 02:08:10;;;;;;;13.38;10.20;;;17.80;68.70;;;;;;5054976;28;20028;-65
2023/05/21 02:10:36;;;;;;;16.38;9.65;;;17.90;68.80;;;;;;5054703;28;20104;-65
2023/05/21 02:13:02;;;;;;;15.02;9.70;;;17.90;68.70;;;;;;5055150;28;20056;-65
2023/05/21 02:15:28;;;;;;;14.50;9.48;;;17.80;68.70;;;;;;5058551;28;20024;-65
2023/05/21 02:17:54;;;;;;;13.38;9.55;;;17.80;68.80;;;;;;5058225;28;20029;-66
2023/05/21 02:20:21;;;;;;;15.13;9.75;;;17.80;68.90;;;;;;5057927;28;20032;-65
2023/05/21 02:22:48;;;;;;;11.82;8.57;;;17.90;69.00;;;;;;5058099;28;20025;-67
2023/05/21 02:25:15;;;;;;;12.00;8.60;;;17.80;69.10;;;;;;5057611;28;20045;-65
2023/05/21 02:27:43;;;;;;;12.35;8.55;;;17.80;69.00;;;;;;5058352;28;20021;-65
2023/05/21 02:30:14;;;;;;;13.60;8.15;;;17.80;69.10;;;;;;5057754;28;20036;-66
2023/05/21 02:32:41;;;;;;;11.10;7.70;;;17.70;69.20;;;;;;5057657;28;20545;-65
2023/05/21 02:35:09;;;;;;;12.43;8.23;;;17.70;69.20;;;;;;5057762;28;20039;-65
2023/05/21 02:37:35;;;;;;;11.32;7.68;;;17.70;69.30;;;;;;5057610;28;20017;-65
2023/05/21 02:40:03;;;;;;;13.90;8.57;;;17.70;69.30;;;;;;5058125;28;20037;-65
2023/05/21 02:42:29;;;;;;;11.57;8.30;;;17.70;69.30;;;;;;5057710;28;20025;-65
2023/05/21 02:44:55;;;;;;;10.73;7.88;;;17.70;69.30;;;;;;5057893;28;20025;-65
2023/05/21 02:47:22;;;;;;;14.35;9.55;;;17.70;69.30;;;;;;5056573;28;20021;-65
2023/05/21 02:49:50;;;;;;;11.80;8.27;;;17.70;69.30;;;;;;5057425;28;20509;-65
2023/05/21 02:52:22;;;;;;;14.85;9.60;;;17.70;69.40;;;;;;5057616;28;20119;-67
2023/05/21 02:54:48;;;;;;;15.67;9.57;;;17.70;69.40;;;;;;5057421;28;20450;-65
2023/05/21 02:57:14;;;;;;;12.82;9.32;;;17.70;69.40;;;;;;5057736;28;20324;-74
2023/05/21 02:59:40;;;;;;;15.40;10.73;;;17.70;69.30;;;;;;5057235;28;20032;-74
2023/05/21 03:02:06;;;;;;;15.07;9.75;;;17.60;69.30;;;;;;5057341;28;20099;-74
2023/05/21 03:04:37;;;;;;;15.40;10.27;;;17.60;69.20;;;;;;5057090;28;20044;-74
2023/05/21 03:07:04;;;;;;;13.65;9.25;;;17.60;69.20;;;;;;5057894;28;20067;-74
2023/05/21 03:09:30;;;;;;;13.30;9.75;;;17.60;69.20;;;;;;5057047;28;20020;-74
2023/05/21 03:11:56;;;;;;;12.02;8.93;;;17.60;69.20;;;;;;5056029;28;20025;-74
2023/05/21 03:14:23;;;;;;;14.10;10.15;;;17.60;69.20;;;;;;5056927;28;20099;-74
2023/05/21 03:16:50;;;;;;;12.48;8.60;;;17.60;69.30;;;;;;5057211;28;20037;-74
2023/05/21 03:19:16;;;;;;;13.55;9.60;;;17.60;69.30;;;;;;5056852;28;20113;-73
2023/05/21 03:21:42;;;;;;;13.48;8.77;;;17.60;69.30;;;;;;5057252;28;20156;-73
2023/05/21 03:24:08;;;;;;;12.80;8.95;;;17.60;69.30;;;;;;5055511;28;20366;-73
2023/05/21 03:26:34;;;;;;;12.90;9.55;;;17.60;69.40;;;;;;5056691;28;20422;-73
2023/05/21 03:29:01;;;;;;;15.85;10.23;;;17.60;69.50;;;;;;5056684;28;20025;-73
2023/05/21 03:31:27;;;;;;;14.60;9.70;;;17.60;69.50;;;;;;5056887;28;20147;-73
2023/05/21 03:33:52;;;;;;;13.25;9.52;;;17.60;69.40;;;;;;5056543;28;20071;-74
2023/05/21 03:36:19;;;;;;;12.60;8.80;;;17.50;69.50;;;;;;5057044;28;20098;-74
2023/05/21 03:38:45;;;;;;;14.55;9.85;;;17.50;69.50;;;;;;5056503;28;20040;-74
2023/05/21 03:41:11;;;;;;;14.10;9.70;;;17.60;69.40;;;;;;5056387;28;20096;-74
2023/05/21 03:43:37;;;;;;;14.15;9.30;;;17.60;69.30;;;;;;5055689;28;20025;-74
2023/05/21 03:46:03;;;;;;;13.95;8.88;;;17.50;69.20;;;;;;5056310;28;20343;-65
2023/05/21 03:48:29;;;;;;;14.35;9.65;;;17.60;69.10;;;;;;5056535;28;20093;-65
2023/05/21 03:50:55;;;;;;;12.93;9.52;;;17.60;68.80;;;;;;5056485;28;20024;-65
2023/05/21 03:53:21;;;;;;;12.55;8.55;;;17.60;68.90;;;;;;5056133;28;20021;-66
2023/05/21 03:55:53;;;;;;;16.23;9.93;;;17.70;69.00;;;;;;5056101;28;20060;-65
2023/05/21 03:58:23;;;;;;;12.77;8.98;;;17.70;69.00;;;;;;5055573;28;20032;-74
2023/05/21 04:00:49;;;;;;;15.05;8.65;;;17.70;69.00;;;;;;5055939;28;20020;-74
2023/05/21 04:03:16;;;;;;;15.18;9.55;;;17.70;69.00;;;;;;5056319;28;20119;-74
2023/05/21 04:05:43;;;;;;;14.27;9.75;;;17.80;69.00;;;;;;5056020;28;20129;-74
2023/05/21 04:08:09;;;;;;;12.35;8.50;;;17.80;68.90;;;;;;5055919;28;20036;-74
2023/05/21 04:10:35;;;;;;;13.98;8.90;;;17.80;68.80;;;;;;5057332;28;20021;-74
2023/05/21 04:13:01;;;;;;;12.82;8.65;;;17.90;68.80;;;;;;5062480;28;20039;-74
2023/05/21 04:15:27;;;;;;;16.08;9.55;;;17.90;68.70;;;;;;5061871;28;20016;-74
2023/05/21 04:17:53;;;;;;;13.07;8.85;;;17.90;68.60;;;;;;5061735;28;20458;-66
2023/05/21 04:20:20;;;;;;;14.18;9.80;;;18.00;68.60;;;;;;5057279;28;20035;-66
2023/05/21 04:22:46;;;;;;;13.10;9.30;;;17.90;68.30;;;;;;5055123;28;20379;-65
2023/05/21 04:25:12;;;;;;;15.27;9.77;;;18.00;68.30;;;;;;5055293;28;20041;-65
2023/05/21 04:27:38;;;;;;;13.98;9.23;;;18.00;68.20;;;;;;5055872;28;20107;-65
2023/05/21 04:30:05;;;;;;;15.70;9.45;;;18.10;68.20;;;;;;5055830;28;20013;-65
2023/05/21 04:32:32;;;;;;;14.13;8.82;;;18.10;68.30;;;;;;5055770;28;20086;-65
2023/05/21 04:34:59;;;;;;;14.23;8.15;;;18.10;68.30;;;;;;5055666;28;20063;-66
2023/05/21 04:37:30;;;;;;;11.65;8.02;;;18.10;68.30;;;;;;5054836;28;20036;-65
2023/05/21 04:39:57;;;;;;;15.38;9.57;;;18.10;68.30;;;;;;5055602;28;20025;-74
2023/05/21 04:42:23;;;;;;;11.73;8.30;;;18.20;68.30;;;;;;5055797;28;20175;-66
2023/05/21 04:44:49;;;;;;;13.38;8.63;;;18.20;68.30;;;;;;5055460;28;20530;-74
2023/05/21 04:47:17;;;;;;;11.88;8.68;;;18.20;68.30;;;;;;5055251;28;20151;-65
2023/05/21 04:49:45;;;;;;;11.43;7.70;;;18.20;68.30;;;;;;5055545;28;20044;-65
2023/05/21 04:52:12;;;;;;;13.00;8.77;;;18.20;68.20;;;;;;5055115;28;20043;-65
2023/05/21 04:54:40;;;;;;;13.45;8.98;;;18.20;68.20;;;;;;5054150;28;20024;-65
2023/05/21 04:57:06;;;;;;;11.60;8.15;;;18.20;68.20;;;;;;5055064;28;20033;-74
2023/05/21 04:59:33;;;;;;;13.30;9.07;;;18.30;68.20;;;;;;5055683;28;20106;-65
2023/05/21 05:01:59;;;;;;;13.45;9.38;;;18.30;68.10;;;;;;5054437;28;20445;-65
2023/05/21 05:04:25;;;;;;;13.15;8.73;;;18.30;68.30;;;;;;5055051;28;20059;-66
2023/05/21 05:06:51;;;;;;;13.10;8.93;;;18.30;68.20;;;;;;5055058;28;20029;-74
2023/05/21 05:09:17;;;;;;;14.30;9.43;;;18.30;67.90;;;;;;5055030;28;20029;-74
2023/05/21 05:11:43;;;;;;;13.30;9.30;;;18.30;68.00;;;;;;5055278;28;20484;-74
2023/05/21 05:14:09;;;;;;;13.30;9.18;;;18.40;67.90;;;;;;5054966;28;20029;-74
2023/05/21 05:16:35;;;;;;;13.95;8.65;;;18.40;67.90;;;;;;5054951;28;20032;-74
2023/05/21 05:19:01;;;;;;;15.35;9.38;;;18.40;67.80;;;;;;5054975;28;20099;-75
2023/05/21 05:21:27;;;;;;;13.45;9.13;;;18.40;67.80;;;;;;5053849;28;20033;-74
2023/05/21 05:23:53;;;;;;;11.60;8.38;;;18.40;67.70;;;;;;5055319;28;20025;-74
2023/05/21 05:26:20;;;;;;;12.30;8.25;;;18.40;67.80;;;;;;5054644;28;20068;-74
2023/05/21 05:28:46;;;;;;;11.43;7.93;;;18.40;67.80;;;;;;5055128;28;20029;-74
2023/05/21 05:31:12;;;;;;;12.43;8.07;;;18.40;67.80;;;;;;5055100;28;20083;-74
2023/05/21 05:33:39;;;;;;;16.17;10.80;;;18.50;67.80;;;;;;5053787;28;20358;-74
2023/05/21 05:36:05;;;;;;;16.52;9.60;;;18.50;67.80;;;;;;5054788;28;20025;-74
2023/05/21 05:38:32;;;;;;;15.60;10.13;;;18.50;68.00;;;;;;5054756;28;20031;-65
2023/05/21 05:40:58;;;;;;;15.95;10.05;;;18.50;67.90;;;;;;5054662;28;20033;-65
2023/05/21 05:43:25;;;;;;;13.35;9.32;;;18.60;67.90;;;;;;5054722;28;20104;-66
2023/05/21 05:45:51;;;;;;;13.13;9.05;;;18.60;67.80;;;;;;5054871;28;20090;-65
2023/05/21 05:48:17;;;;;;;13.05;8.88;;;18.60;67.80;;;;;;5056936;28;20039;-65
2023/05/21 05:50:43;;;;;;;12.60;8.73;;;18.60;67.80;;;;;;5058575;28;20033;-65
2023/05/21 05:53:12;;;;;;;14.13;9.07;;;18.80;67.80;;;;;;5058482;28;20047;-66
2023/05/21 05:55:38;;;;;;;12.05;7.95;;;18.80;67.60;;;;;;5057767;28;20025;-66
2023/05/21 05:58:04;;;;;;;11.68;8.07;;;18.90;67.50;;;;;;5058703;28;20385;-65
2023/05/21 06:00:30;;;;;;;11.77;7.90;;;19.00;67.40;;;;;;5058626;28;20096;-65
2023/05/21 06:02:56;;;;;;;13.45;8.10;;;19.20;67.20;;;;;;5058263;28;20418;-65
2023/05/21 06:05:22;;;;;;;11.25;7.90;;;19.40;67.00;;;;;;5058242;28;20066;-65
2023/05/21 06:07:48;;;;;;;13.43;7.88;;;19.70;66.70;;;;;;5058510;28;20025;-65
2023/05/21 06:10:14;;;;;;;12.00;8.15;;;20.40;66.20;;;;;;5058433;28;20381;-74
2023/05/21 06:12:40;;;;;;;11.27;7.70;;;21.70;64.80;;;;;;5058672;28;20025;-74
2023/05/21 06:15:06;;;;;;;12.50;8.02;;;22.80;62.70;;;;;;5058190;28;20514;-74
2023/05/21 06:17:32;;;;;;;11.93;7.80;;;23.70;60.80;;;;;;5058070;28;20089;-74
2023/05/21 06:19:58;;;;;;;12.13;7.65;;;24.50;59.20;;;;;;5058258;28;20155;-74
2023/05/21 06:22:24;;;;;;;10.20;7.43;;;25.50;57.70;;;;;;5057872;28;20396;-66
2023/05/21 06:24:50;;;;;;;12.93;7.50;;;26.30;55.70;;;;;;5057784;28;20053;-66
2023/05/21 06:27:16;;;;;;;9.70;7.18;;;27.00;54.00;;;;;;5058080;28;20040;-66
2023/05/21 06:29:42;;;;;;;10.27;6.40;;;27.90;52.20;;;;;;5057827;28;20021;-66
2023/05/21 06:32:08;;;;;;;10.18;7.65;;;29.00;50.20;;;;;;5057739;28;20087;-66
2023/05/21 06:34:34;;;;;;;11.85;7.13;;;30.20;47.80;;;;;;5057636;28;20350;-74
2023/05/21 06:37:00;;;;;;;11.02;7.40;;;31.30;45.60;;;;;;5057937;28;20029;-74
2023/05/21 06:39:26;;;;;;;9.13;6.65;;;31.90;43.20;;;;;;5057635;28;20029;-74
2023/05/21 06:41:52;;;;;;;11.70;7.50;;;32.20;42.30;;;;;;5057470;28;20025;-74
2023/05/21 06:44:18;;;;;;;10.13;6.57;;;32.00;41.70;;;;;;5057713;28;20048;-74
2023/05/21 06:46:44;;;;;;;10.23;7.35;;;31.50;42.00;;;;;;5057731;28;20055;-74
2023/05/21 06:49:13;;;;;;;10.38;6.60;;;30.90;42.60;;;;;;5057439;28;20033;-74
2023/05/21 06:51:39;;;;;;;9.75;7.22;;;30.30;43.60;;;;;;5057341;28;20025;-74
2023/05/21 06:54:05;;;;;;;10.25;7.10;;;29.60;44.40;;;;;;5057764;28;20453;-66
2023/05/21 06:56:31;;;;;;;11.88;7.80;;;28.80;45.30;;;;;;5057597;28;20017;-66
2023/05/21 06:58:58;;;;;;;10.35;7.47;;;28.10;46.50;;;;;;5057225;28;20369;-66
2023/05/21 07:01:24;;;;;;;12.73;8.18;;;27.50;47.60;;;;;;5057099;28;20021;-66
2023/05/21 07:03:50;;;;;;;12.05;8.07;;;27.00;48.50;;;;;;5057115;28;20029;-66
2023/05/21 07:06:16;;;;;;;11.60;8.35;;;26.50;49.10;;;;;;5057152;28;20099;-74
2023/05/21 07:08:42;;;;;;;11.23;7.68;;;26.10;49.80;;;;;;5057129;28;20178;-66
2023/05/21 07:11:08;;;;;;;15.35;9.10;;;25.80;50.80;;;;;;5057079;28;20477;-74
2023/05/21 07:13:36;;;;;;;11.65;8.40;;;25.60;51.10;;;;;;5057451;28;20136;-66
2023/05/21 07:16:02;;;;;;;11.38;8.02;;;25.40;51.30;;;;;;5056852;28;20022;-66
2023/05/21 07:18:28;;;;;;;10.68;7.47;;;25.30;51.40;;;;;;5057414;28;20311;-66
2023/05/21 07:20:54;;;;;;;10.80;7.75;;;25.20;52.00;;;;;;5056819;28;20037;-66
2023/05/21 07:23:20;;;;;;;13.10;8.40;;;25.10;52.10;;;;;;5057026;28;20033;-66
2023/05/21 07:25:46;;;;;;;14.25;8.55;;;25.00;52.60;;;;;;5056535;28;20068;-66
2023/05/21 07:28:12;;;;;;;11.20;7.90;;;25.00;52.80;;;;;;5056744;28;20053;-66
2023/05/21 07:30:38;;;;;;;13.73;8.75;;;25.00;53.00;;;;;;5056895;28;20036;-66
2023/05/21 07:33:04;;;;;;;10.05;7.57;;;25.10;53.20;;;;;;5056625;28;20025;-66
2023/05/21 07:35:29;;;;;;;13.52;9.07;;;25.20;53.30;;;;;;5056456;28;20096;-66
2023/05/21 07:37:55;;;;;;;12.13;8.07;;;25.20;53.30;;;;;;5056500;28;20056;-66
2023/05/21 07:40:21;;;;;;;12.18;8.30;;;25.20;52.50;;;;;;5056434;28;20079;-66
2023/05/21 07:42:47;;;;;;;10.93;7.78;;;25.20;52.40;;;;;;5056603;28;20331;-74
2023/05/21 07:45:13;;;;;;;11.55;7.75;;;25.30;51.90;;;;;;5056443;28;20064;-75
2023/05/21 07:47:39;;;;;;;10.98;7.70;;;25.40;51.60;;;;;;5056824;28;20029;-75
2023/05/21 07:50:06;;;;;;;10.13;7.70;;;25.40;51.00;;;;;;5056240;28;20462;-66
2023/05/21 07:52:32;;;;;;;12.40;7.90;;;25.50;51.00;;;;;;5056244;28;20082;-74
2023/05/21 07:54:57;;;;;;;10.95;7.80;;;25.60;50.50;;;;;;5056621;28;20025;-74
2023/05/21 07:57:23;;;;;;;10.98;7.90;;;25.70;49.40;;;;;;5055929;28;20036;-74
2023/05/21 07:59:49;;;;;;;11.20;8.38;;;25.70;47.20;;;;;;5056620;28;20032;-66
2023/05/21 08:02:15;;;;;;;10.88;7.68;;;25.80;47.50;;;;;;5056224;28;20040;-74
2023/05/21 08:04:42;;;;;;;15.30;8.10;;;25.90;48.70;;;;;;5055896;28;20104;-75
2023/05/21 08:07:08;;;;;;;11.80;7.55;;;26.00;48.10;;;;;;5055984;28;20028;-75
2023/05/21 08:09:34;;;;;;;11.40;8.40;;;26.10;48.20;;;;;;5055836;28;20028;-74
2023/05/21 08:12:00;;;;;;;10.07;7.78;;;26.20;47.20;;;;;;5055474;28;20032;-75
2023/05/21 08:14:26;;;;;;;12.90;8.07;;;26.30;47.80;;;;;;5055777;28;20107;-74
2023/05/21 08:16:52;;;;;;;10.85;7.38;;;26.40;46.30;;;;;;5055807;28;20021;-74
2023/05/21 08:19:18;;;;;;;10.55;8.02;;;26.40;46.30;;;;;;5056000;28;20132;-75
2023/05/21 08:21:44;;;;;;;13.40;7.57;;;26.50;45.80;;;;;;5055794;28;20028;-75
2023/05/21 08:24:09;;;;;;;11.38;7.57;;;26.50;46.20;;;;;;5055818;28;20033;-75
2023/05/21 08:26:35;;;;;;;9.85;7.65;;;26.60;46.00;;;;;;5055584;28;20401;-75
2023/05/21 08:29:01;;;;;;;10.90;7.47;;;26.70;45.90;;;;;;5055845;28;20116;-66
2023/05/21 08:31:27;;;;;;;10.05;7.28;;;26.60;44.90;;;;;;5055798;28;20044;-66
2023/05/21 08:33:55;;;;;;;12.23;7.85;;;26.70;45.30;;;;;;5055422;28;20017;-74
2023/05/21 08:36:21;;;;;;;12.32;7.80;;;26.70;45.00;;;;;;5055357;28;20032;-75
2023/05/21 08:38:47;;;;;;;11.50;8.13;;;26.70;44.40;;;;;;5055898;28;20436;-66
2023/05/21 08:41:15;;;;;;;11.73;7.75;;;26.80;43.80;;;;;;5055548;28;20041;-74
2023/05/21 08:43:42;;;;;;;10.38;7.70;;;26.80;44.00;;;;;;5055541;28;20111;-66
2023/05/21 08:46:09;;;;;;;11.18;7.90;;;26.70;42.90;;;;;;5055849;28;20021;-73
2023/05/21 08:48:37;;;;;;;10.70;7.82;;;26.70;43.70;;;;;;5055563;28;20017;-66
2023/05/21 08:51:03;;;;;;;11.20;7.97;;;26.70;42.60;;;;;;5055491;28;20033;-73
2023/05/21 08:53:32;;;;;;;11.75;8.00;;;26.70;43.10;;;;;;5055173;28;20349;-73
2023/05/21 08:55:58;;;;;;;11.45;7.75;;;26.70;42.60;;;;;;5055424;28;20104;-67
2023/05/21 08:58:24;;;;;;;12.05;7.72;;;26.70;43.60;;;;;;5055168;28;20017;-68
2023/05/21 09:00:55;;;;;;;11.43;7.78;;;26.80;43.70;;;;;;5055123;28;20035;-67
2023/05/21 09:03:21;;;;;;;11.32;8.00;;;26.80;43.00;;;;;;5055041;28;20021;-67
2023/05/21 09:05:50;;;;;;;11.80;8.07;;;26.80;43.00;;;;;;5055221;28;20353;-77
2023/05/21 09:08:30;;;;;;;9.50;7.40;;;26.80;42.20;;;;;;5055603;28;20071;-68
2023/05/21 09:10:56;;;;;;;12.43;7.55;;;26.90;43.00;;;;;;5055425;28;20044;-68
2023/05/21 09:13:25;;;;;;;10.70;7.30;;;26.90;43.30;;;;;;5055073;28;20037;-70
2023/05/21 09:15:50;;;;;;;10.68;7.13;;;26.90;43.00;;;;;;5054825;28;20071;-67
2023/05/21 09:18:16;;;;;;;11.18;7.03;;;27.00;42.30;;;;;;5054841;28;20457;-69
2023/05/21 09:20:43;;;;;;;12.73;7.13;;;27.00;42.90;;;;;;5055169;28;20025;-69
2023/05/21 09:23:15;;;;;;;9.93;6.70;;;27.10;43.60;;;;;;5057156;28;20029;-66
2023/05/21 09:25:45;;;;;;;13.55;6.60;;;27.20;42.70;;;;;;5058668;28;20080;-67
2023/05/21 09:28:13;;;;;;;9.02;6.47;;;27.20;40.30;;;;;;5059160;28;20017;-67
2023/05/21 09:30:44;;;;;;;10.85;6.90;;;27.20;39.00;;;;;;5059405;28;20419;-67
2023/05/21 09:33:10;;;;;;;11.40;6.50;;;27.10;39.50;;;;;;5058813;28;20067;-70
2023/05/21 09:35:37;;;;;;;10.43;6.53;;;27.10;38.90;;;;;;5058663;28;20044;-68
2023/05/21 09:38:07;;;;;;;10.77;6.70;;;27.20;38.70;;;;;;5058950;28;20082;-68
2023/05/21 09:40:34;;;;;;;10.38;6.85;;;27.20;37.40;;;;;;5058959;28;20039;-68
2023/05/21 09:43:00;;;;;;;12.68;6.95;;;27.20;37.70;;;;;;5058779;28;20112;-69
2023/05/21 09:45:27;;;;;;;9.13;6.53;;;27.20;37.50;;;;;;5058545;28;20048;-68
2023/05/21 09:47:54;;;;;;;9.88;6.82;;;27.20;39.30;;;;;;5059092;28;20048;-68
2023/05/21 09:50:22;;;;;;;10.95;7.15;;;27.30;38.70;;;;;;5059015;28;20319;-68
2023/05/21 09:52:51;;;;;;;10.43;6.95;;;27.30;38.40;;;;;;5058683;28;20480;-67
2023/05/21 09:55:21;;;;;;;11.98;7.10;;;27.30;37.70;;;;;;5058588;28;20033;-68
2023/05/21 09:57:48;;;;;;;11.38;6.78;;;27.30;38.20;;;;;;5057158;28;20083;-67
2023/05/21 10:00:26;;;;;;;9.88;6.88;;;27.20;37.20;;;;;;5058604;28;20032;-68
2023/05/21 10:02:54;;;;;;;11.02;6.82;;;27.30;37.90;;;;;;5058158;28;20025;-68
2023/05/21 10:05:23;;;;;;;11.80;7.32;;;27.30;37.70;;;;;;5058151;28;20028;-68
2023/05/21 10:07:53;;;;;;;9.95;6.60;;;27.30;37.30;;;;;;5058197;28;20021;-69
2023/05/21 10:10:21;;;;;;;10.57;7.10;;;27.30;37.50;;;;;;5058160;28;20021;-69
2023/05/21 10:12:53;;;;;;;10.57;6.68;;;27.30;38.40;;;;;;5058385;28;20056;-69
2023/05/21 10:15:22;;;;;;;9.50;6.53;;;27.30;37.80;;;;;;5057991;28;20045;-67
2023/05/21 10:17:49;;;;;;;9.75;6.63;;;27.40;37.30;;;;;;5058456;28;20033;-67
2023/05/21 10:20:16;;;;;;;10.65;6.45;;;27.30;37.60;;;;;;5058201;28;20462;-68
2023/05/21 10:22:43;;;;;;;11.45;7.05;;;27.40;37.40;;;;;;5058025;28;20107;-67
2023/05/21 10:25:12;;;;;;;9.45;6.78;;;27.40;37.90;;;;;;5057486;28;20552;-68
2023/05/21 10:27:40;;;;;;;11.07;6.28;;;27.40;38.30;;;;;;5057731;28;20027;-67
2023/05/21 10:30:07;;;;;;;9.88;6.72;;;27.50;37.60;;;;;;5057896;28;20036;-67
2023/05/21 10:32:33;;;;;;;9.10;6.82;;;27.50;37.80;;;;;;5057602;28;20040;-68
2023/05/21 10:35:01;;;;;;;11.65;7.70;;;27.50;38.60;;;;;;5056505;28;20033;-68
2023/05/21 10:37:28;;;;;;;11.63;7.07;;;27.50;37.90;;;;;;5058355;28;20112;-68
2023/05/21 10:39:55;;;;;;;10.93;6.75;;;27.60;37.50;;;;;;5057684;28;20025;-67
2023/05/21 10:42:30;;;;;;;11.10;7.07;;;27.50;38.30;;;;;;5057493;28;20354;-68
2023/05/21 10:45:14;;;;;;;11.45;6.38;;;27.50;37.50;;;;;;5057991;28;20079;-68
2023/05/21 10:48:11;;;;;;;12.05;7.20;;;27.50;38.00;;;;;;5057973;28;20434;-67
2023/05/21 10:51:05;;;;;;;11.88;6.93;;;27.60;38.40;;;;;;5057598;28;20025;-67
2023/05/21 10:53:55;;;;;;;10.90;6.50;;;27.70;38.50;;;;;;5057562;28;20101;-67
2023/05/21 10:56:23;;;;;;;10.13;6.85;;;27.70;37.60;;;;;;5057810;28;20096;-68
2023/05/21 10:58:54;;;;;;;9.20;6.50;;;27.70;37.70;;;;;;5057466;28;20029;-68
2023/05/21 11:01:20;;;;;;;10.75;7.00;;;27.70;37.90;;;;;;5057303;28;20114;-69
2023/05/21 11:03:49;;;;;;;9.73;6.70;;;27.70;37.30;;;;;;5057037;28;20036;-67
2023/05/21 11:06:25;;;;;;;10.25;7.05;;;27.70;38.10;;;;;;5057597;28;20028;-68
2023/05/21 11:08:55;;;;;;;9.55;6.50;;;27.70;37.90;;;;;;5057037;28;20104;-68
2023/05/21 11:11:50;;;;;;;12.15;6.40;;;27.70;38.40;;;;;;5057023;28;20021;-68
2023/05/21 11:14:36;;;;;;;10.13;6.70;;;27.70;37.20;;;;;;5056834;28;20403;-67
2023/05/21 11:17:14;;;;;;;10.90;6.65;;;27.70;37.60;;;;;;5056894;28;20029;-68
2023/05/21 11:19:42;;;;;;;12.77;6.90;;;27.70;37.70;;;;;;5057289;28;20426;-68
2023/05/21 11:22:22;;;;;;;11.32;6.10;;;27.70;37.80;;;;;;5056890;28;20028;-66
2023/05/21 11:24:49;;;;;;;10.90;6.88;;;27.60;37.60;;;;;;5056627;28;20296;-68
2023/05/21 11:27:35;;;;;;;10.63;6.57;;;27.50;37.60;;;;;;5056911;28;20037;-68
2023/05/21 11:30:14;;;;;;;10.40;6.47;;;27.40;37.30;;;;;;5056874;28;20025;-68
2023/05/21 11:33:06;;;;;;;9.07;6.30;;;27.40;37.60;;;;;;5057149;28;20029;-67
2023/05/21 11:35:45;;;;;;;9.75;6.43;;;27.40;37.40;;;;;;5056945;28;20025;-67
2023/05/21 11:38:10;;;;;;;11.43;6.70;;;27.40;37.60;;;;;;5057004;28;20362;-67
2023/05/21 11:40:37;;;;;;;10.73;6.50;;;27.40;38.50;;;;;;5056433;28;20025;-70
2023/05/21 11:43:03;;;;;;;8.88;6.30;;;27.50;38.20;;;;;;5056259;28;20037;-69
2023/05/21 11:45:31;;;;;;;9.98;6.38;;;27.50;37.80;;;;;;5056146;28;20056;-70
2023/05/21 11:47:57;;;;;;;10.18;6.07;;;27.50;37.80;;;;;;5056579;28;20021;-68
2023/05/21 11:50:24;;;;;;;10.40;6.45;;;27.50;37.90;;;;;;5056532;28;20338;-68
2023/05/21 11:52:50;;;;;;;12.85;6.47;;;27.60;36.90;;;;;;5056476;28;20111;-68
2023/05/21 11:55:24;;;;;;;9.10;6.05;;;27.60;37.90;;;;;;5056232;28;20092;-68
2023/05/21 11:57:52;;;;;;;8.25;6.10;;;27.60;37.50;;;;;;5056428;28;20048;-67
2023/05/21 12:00:19;;;;;;;10.68;6.30;;;27.70;37.80;;;;;;5056100;28;20099;-68
2023/05/21 12:02:47;;;;;;;10.63;6.15;;;27.70;38.20;;;;;;5056146;28;20453;-67
2023/05/21 12:05:13;;;;;;;10.48;6.20;;;27.70;37.50;;;;;;5055940;28;20533;-68
2023/05/21 12:07:39;;;;;;;9.82;6.38;;;27.70;38.00;;;;;;5056198;28;20053;-68
2023/05/21 12:10:06;;;;;;;8.13;5.78;;;27.80;38.30;;;;;;5055921;28;20389;-67
2023/05/21 12:12:32;;;;;;;8.35;6.38;;;27.90;37.90;;;;;;5055813;28;20083;-68
2023/05/21 12:14:58;;;;;;;14.65;6.35;;;27.90;37.50;;;;;;5055682;28;20395;-69
2023/05/21 12:17:30;;;;;;;10.35;6.32;;;27.90;38.00;;;;;;5056476;28;20025;-67
2023/05/21 12:19:56;;;;;;;10.90;6.53;;;28.00;38.40;;;;;;5055975;28;20064;-67
2023/05/21 12:22:23;;;;;;;10.93;6.22;;;28.10;37.20;;;;;;5055926;28;20406;-68
2023/05/21 12:24:50;;;;;;;10.63;6.50;;;28.00;37.70;;;;;;5055368;28;20069;-67
2023/05/21 12:27:17;;;;;;;8.90;6.28;;;27.90;37.70;;;;;;5055696;28;20440;-67
2023/05/21 12:29:44;;;;;;;13.50;6.20;;;27.80;37.80;;;;;;5055735;28;20021;-69
2023/05/21 12:32:12;;;;;;;8.13;5.93;;;27.70;37.80;;;;;;5055276;28;20029;-68
2023/05/21 12:34:39;;;;;;;8.95;5.88;;;27.80;37.70;;;;;;5055377;28;20033;-69
2023/05/21 12:37:06;;;;;;;10.32;5.72;;;27.90;37.30;;;;;;5055331;28;20044;-66
2023/05/21 12:39:43;;;;;;;8.82;5.93;;;27.90;36.00;;;;;;5054374;28;20036;-67